createdAt,value
2022-10-24T00:00:14.922Z,79.02
2022-10-24T00:00:36.015Z,79.11
2022-10-24T00:00:57.043Z,79.11
2022-10-24T00:01:18.100Z,79.15
2022-10-24T00:01:39.152Z,79.12
2022-10-24T00:02:00.187Z,79.11
2022-10-24T00:02:21.309Z,79.13
2022-10-24T00:02:42.436Z,79.08
2022-10-24T00:03:03.600Z,79.08
2022-10-24T00:03:24.631Z,79.11
2022-10-24T00:03:45.798Z,79.07
2022-10-24T00:04:06.852Z,79.10
2022-10-24T00:04:27.921Z,79.07
2022-10-24T00:04:48.972Z,79.06
2022-10-24T00:05:10.047Z,79.03
2022-10-24T00:05:31.073Z,79.07
2022-10-24T00:05:52.139Z,79.02
2022-10-24T00:06:13.181Z,79.07
2022-10-24T00:06:34.231Z,79.07
2022-10-24T00:06:55.297Z,79.14
2022-10-24T00:07:16.365Z,79.11
2022-10-24T00:07:37.419Z,79.16
2022-10-24T00:07:58.467Z,79.10
2022-10-24T00:08:19.534Z,79.10
2022-10-24T00:08:40.591Z,79.10
2022-10-24T00:09:01.659Z,79.12
2022-10-24T00:09:22.709Z,79.11
2022-10-24T00:09:43.775Z,79.10
2022-10-24T00:10:04.810Z,79.14
2022-10-24T00:10:25.861Z,79.14
2022-10-24T00:10:46.914Z,79.17
2022-10-24T00:11:07.971Z,79.11
2022-10-24T00:11:29.019Z,79.05
2022-10-24T00:11:50.081Z,79.00
2022-10-24T00:12:11.207Z,78.93
2022-10-24T00:12:32.235Z,78.96
2022-10-24T00:12:53.291Z,78.91
2022-10-24T00:13:14.343Z,78.93
2022-10-24T00:13:35.413Z,78.99
2022-10-24T00:13:56.453Z,78.94
2022-10-24T00:14:17.513Z,78.92
2022-10-24T00:14:38.567Z,79.00
2022-10-24T00:14:59.635Z,79.00
2022-10-24T00:15:20.679Z,78.99
2022-10-24T00:15:41.726Z,78.97
2022-10-24T00:16:02.793Z,78.96
2022-10-24T00:16:24.068Z,78.97
2022-10-24T00:16:45.127Z,78.95
2022-10-24T00:17:06.166Z,79.00
2022-10-24T00:17:27.256Z,78.93
2022-10-24T00:17:48.286Z,78.82
2022-10-24T00:18:09.325Z,78.82
2022-10-24T00:18:30.390Z,78.85
2022-10-24T00:18:51.459Z,78.78
2022-10-24T00:19:12.510Z,78.79
2022-10-24T00:19:33.652Z,78.74
2022-10-24T00:19:54.717Z,78.75
2022-10-24T00:20:15.765Z,78.72
2022-10-24T00:20:36.846Z,78.72
2022-10-24T00:20:57.861Z,78.76
2022-10-24T00:21:18.928Z,78.81
2022-10-24T00:21:39.991Z,78.82
2022-10-24T00:22:01.087Z,78.79
2022-10-24T00:22:22.141Z,78.77
2022-10-24T00:22:43.555Z,78.84
2022-10-24T00:23:04.826Z,78.90
2022-10-24T00:23:25.886Z,78.91
2022-10-24T00:23:47.046Z,78.90
2022-10-24T00:24:08.106Z,78.92
2022-10-24T00:24:29.163Z,78.95
2022-10-24T00:24:50.216Z,79.03
2022-10-24T00:25:11.270Z,79.07
2022-10-24T00:25:32.330Z,79.13
2022-10-24T00:25:53.378Z,79.15
2022-10-24T00:26:14.438Z,79.14
2022-10-24T00:26:35.470Z,79.22
2022-10-24T00:26:56.517Z,79.29
2022-10-24T00:27:17.583Z,79.35
2022-10-24T00:27:38.623Z,79.39
2022-10-24T00:27:59.679Z,79.42
2022-10-24T00:28:20.727Z,79.42
2022-10-24T00:28:41.800Z,79.40
2022-10-24T00:29:02.865Z,79.37
2022-10-24T00:29:23.904Z,79.36
2022-10-24T00:29:44.947Z,79.35
2022-10-24T00:30:06.040Z,79.39
2022-10-24T00:30:27.071Z,79.38
2022-10-24T00:30:48.105Z,79.39
2022-10-24T00:31:09.150Z,79.40
2022-10-24T00:31:30.221Z,79.39
2022-10-24T00:31:51.269Z,79.40
2022-10-24T00:32:12.329Z,79.41
2022-10-24T00:32:33.375Z,79.37
2022-10-24T00:32:54.429Z,79.35
2022-10-24T00:33:15.495Z,79.35
2022-10-24T00:33:36.563Z,79.35
2022-10-24T00:33:57.621Z,79.40
2022-10-24T00:34:18.665Z,79.36
2022-10-24T00:34:39.714Z,79.42
2022-10-24T00:35:01.069Z,79.42
2022-10-24T00:35:22.124Z,79.42
2022-10-24T00:35:43.180Z,79.42
2022-10-24T00:36:04.237Z,79.44
2022-10-24T00:36:25.276Z,79.41
2022-10-24T00:36:46.343Z,79.43
2022-10-24T00:37:07.414Z,79.46
2022-10-24T00:37:28.450Z,79.49
2022-10-24T00:37:49.516Z,79.41
2022-10-24T00:38:10.566Z,79.46
2022-10-24T00:38:31.642Z,79.45
2022-10-24T00:38:52.704Z,79.47
2022-10-24T00:39:13.739Z,79.44
2022-10-24T00:39:34.787Z,79.47
2022-10-24T00:39:55.837Z,79.47
2022-10-24T00:40:16.910Z,79.48
2022-10-24T00:40:37.964Z,79.44
2022-10-24T00:40:59.008Z,79.43
2022-10-24T00:41:20.083Z,79.40
2022-10-24T00:41:41.126Z,79.43
2022-10-24T00:42:02.174Z,79.40
2022-10-24T00:42:23.243Z,79.40
2022-10-24T00:42:44.296Z,79.41
2022-10-24T00:43:05.344Z,79.38
2022-10-24T00:43:26.405Z,79.37
2022-10-24T00:43:47.452Z,79.39
2022-10-24T00:44:08.624Z,79.38
2022-10-24T00:44:29.688Z,79.35
2022-10-24T00:44:50.731Z,79.46
2022-10-24T00:45:11.805Z,79.38
2022-10-24T00:45:32.912Z,79.36
2022-10-24T00:45:53.929Z,79.38
2022-10-24T00:46:14.991Z,79.34
2022-10-24T00:46:36.030Z,79.39
2022-10-24T00:46:57.095Z,79.34
2022-10-24T00:47:18.154Z,79.33
2022-10-24T00:47:39.214Z,79.36
2022-10-24T00:48:00.254Z,79.39
2022-10-24T00:48:21.306Z,79.36
2022-10-24T00:48:42.361Z,79.36
2022-10-24T00:49:03.406Z,79.34
2022-10-24T00:49:24.582Z,79.32
2022-10-24T00:49:45.641Z,79.32
2022-10-24T00:50:06.695Z,79.32
2022-10-24T00:50:27.749Z,79.34
2022-10-24T00:50:48.804Z,79.39
2022-10-24T00:51:09.857Z,79.38
2022-10-24T00:51:30.903Z,79.34
2022-10-24T00:51:51.972Z,79.33
2022-10-24T00:52:13.037Z,79.34
2022-10-24T00:52:34.068Z,79.35
2022-10-24T00:52:55.135Z,79.39
2022-10-24T00:53:16.170Z,79.37
2022-10-24T00:53:37.230Z,79.33
2022-10-24T00:54:19.281Z,79.35
2022-10-24T00:54:40.350Z,79.30
2022-10-24T00:55:01.425Z,79.38
2022-10-24T00:55:22.451Z,79.37
2022-10-24T00:55:43.510Z,79.36
2022-10-24T00:56:04.569Z,79.38
2022-10-24T00:56:25.624Z,79.36
2022-10-24T00:56:46.666Z,79.34
2022-10-24T00:57:07.716Z,79.35
2022-10-24T00:57:28.772Z,79.33
2022-10-24T00:57:49.840Z,79.34
2022-10-24T00:58:10.883Z,79.38
2022-10-24T00:58:31.932Z,79.35
2022-10-24T00:58:53.002Z,79.31
2022-10-24T00:59:14.053Z,79.32
2022-10-24T00:59:35.107Z,79.34
2022-10-24T00:59:56.269Z,79.31
2022-10-24T01:00:17.349Z,79.30
2022-10-24T01:00:38.550Z,79.33
2022-10-24T01:00:59.695Z,79.34
2022-10-24T01:01:20.933Z,79.31
2022-10-24T01:01:42.057Z,79.30
2022-10-24T01:02:03.188Z,79.30
2022-10-24T01:02:24.219Z,79.31
2022-10-24T01:02:45.610Z,79.33
2022-10-24T01:03:06.895Z,79.36
2022-10-24T01:03:27.938Z,79.39
2022-10-24T01:03:49.000Z,79.30
2022-10-24T01:04:10.072Z,79.32
2022-10-24T01:04:31.109Z,79.34
2022-10-24T01:04:52.164Z,79.31
2022-10-24T01:05:13.207Z,79.29
2022-10-24T01:05:34.262Z,79.32
2022-10-24T01:05:55.308Z,79.30
2022-10-24T01:06:16.387Z,79.30
2022-10-24T01:06:37.407Z,79.29
2022-10-24T01:06:58.464Z,79.26
2022-10-24T01:07:19.517Z,79.24
2022-10-24T01:07:40.562Z,79.22
2022-10-24T01:08:01.620Z,79.22
2022-10-24T01:08:22.677Z,79.19
2022-10-24T01:08:43.725Z,79.18
2022-10-24T01:09:04.777Z,79.20
2022-10-24T01:09:25.960Z,79.24
2022-10-24T01:09:47.008Z,79.16
2022-10-24T01:10:08.053Z,79.20
2022-10-24T01:10:29.157Z,79.21
2022-10-24T01:10:50.171Z,79.15
2022-10-24T01:11:11.219Z,79.12
2022-10-24T01:11:32.270Z,79.10
2022-10-24T01:11:53.328Z,79.11
2022-10-24T01:12:14.370Z,79.08
2022-10-24T01:12:35.435Z,79.13
2022-10-24T01:12:56.487Z,79.14
2022-10-24T01:13:17.555Z,79.13
2022-10-24T01:13:38.598Z,79.13
2022-10-24T01:13:59.657Z,79.06
2022-10-24T01:14:20.697Z,79.08
2022-10-24T01:14:41.864Z,79.08
2022-10-24T01:15:02.925Z,79.04
2022-10-24T01:15:23.999Z,79.06
2022-10-24T01:15:45.020Z,79.03
2022-10-24T01:16:06.077Z,78.99
2022-10-24T01:16:27.130Z,78.97
2022-10-24T01:16:48.187Z,78.94
2022-10-24T01:17:09.242Z,79.01
2022-10-24T01:17:30.303Z,78.97
2022-10-24T01:17:51.353Z,78.98
2022-10-24T01:18:12.404Z,78.96
2022-10-24T01:18:33.449Z,78.90
2022-10-24T01:19:15.572Z,78.89
2022-10-24T01:19:36.617Z,78.83
2022-10-24T01:19:57.694Z,78.81
2022-10-24T01:20:18.740Z,78.92
2022-10-24T01:20:39.791Z,78.91
2022-10-24T01:21:00.842Z,78.97
2022-10-24T01:21:21.902Z,78.95
2022-10-24T01:21:42.962Z,78.96
2022-10-24T01:22:04.015Z,78.98
2022-10-24T01:22:25.062Z,79.00
2022-10-24T01:22:46.493Z,79.05
2022-10-24T01:23:07.708Z,79.12
2022-10-24T01:23:28.759Z,79.05
2022-10-24T01:23:49.820Z,79.08
2022-10-24T01:24:10.864Z,79.03
2022-10-24T01:24:31.928Z,79.01
2022-10-24T01:24:52.969Z,78.98
2022-10-24T01:25:14.038Z,78.99
2022-10-24T01:25:35.099Z,79.02
2022-10-24T01:25:56.140Z,79.06
2022-10-24T01:26:17.201Z,79.05
2022-10-24T01:26:38.286Z,79.04
2022-10-24T01:26:59.337Z,79.02
2022-10-24T01:27:20.621Z,79.07
2022-10-24T01:27:41.800Z,79.13
2022-10-24T01:28:02.904Z,79.13
2022-10-24T01:28:23.962Z,79.11
2022-10-24T01:28:45.016Z,79.11
2022-10-24T01:29:06.072Z,79.05
2022-10-24T01:29:27.129Z,79.07
2022-10-24T01:29:48.165Z,79.05
2022-10-24T01:30:09.211Z,78.98
2022-10-24T01:30:30.301Z,78.96
2022-10-24T01:30:51.332Z,78.99
2022-10-24T01:31:12.390Z,78.99
2022-10-24T01:31:33.434Z,79.04
2022-10-24T01:31:54.485Z,79.02
2022-10-24T01:32:15.544Z,79.03
2022-10-24T01:32:36.607Z,79.09
2022-10-24T01:32:57.660Z,79.05
2022-10-24T01:33:18.721Z,79.10
2022-10-24T01:33:39.772Z,79.11
2022-10-24T01:34:00.827Z,79.13
2022-10-24T01:34:21.889Z,79.08
2022-10-24T01:34:42.934Z,79.10
2022-10-24T01:35:04.102Z,79.09
2022-10-24T01:35:25.192Z,79.12
2022-10-24T01:35:46.305Z,79.14
2022-10-24T01:36:07.378Z,79.12
2022-10-24T01:36:28.413Z,79.19
2022-10-24T01:36:49.468Z,79.20
2022-10-24T01:37:10.529Z,79.14
2022-10-24T01:37:31.578Z,79.20
2022-10-24T01:37:52.631Z,79.20
2022-10-24T01:38:13.686Z,79.21
2022-10-24T01:38:34.749Z,79.24
2022-10-24T01:38:55.795Z,79.26
2022-10-24T01:39:16.854Z,79.22
2022-10-24T01:39:37.909Z,79.26
2022-10-24T01:39:58.961Z,79.17
2022-10-24T01:40:20.006Z,79.25
2022-10-24T01:40:41.065Z,79.24
2022-10-24T01:41:02.235Z,79.26
2022-10-24T01:41:23.278Z,79.21
2022-10-24T01:41:44.330Z,79.12
2022-10-24T01:42:05.377Z,79.05
2022-10-24T01:42:26.431Z,79.06
2022-10-24T01:42:47.488Z,79.09
2022-10-24T01:43:08.543Z,79.07
2022-10-24T01:43:29.613Z,79.08
2022-10-24T01:43:50.702Z,79.11
2022-10-24T01:44:11.747Z,79.18
2022-10-24T01:44:32.794Z,79.19
2022-10-24T01:44:53.855Z,79.19
2022-10-24T01:45:14.885Z,79.17
2022-10-24T01:45:35.959Z,79.19
2022-10-24T01:45:57.023Z,79.20
2022-10-24T01:46:18.185Z,79.18
2022-10-24T01:46:39.232Z,79.18
2022-10-24T01:47:00.292Z,79.22
2022-10-24T01:47:21.335Z,79.23
2022-10-24T01:47:42.646Z,79.23
2022-10-24T01:48:03.850Z,79.27
2022-10-24T01:48:24.911Z,79.21
2022-10-24T01:48:45.959Z,79.19
2022-10-24T01:49:07.011Z,79.13
2022-10-24T01:49:28.055Z,79.05
2022-10-24T01:49:49.112Z,79.04
2022-10-24T01:50:10.176Z,79.08
2022-10-24T01:50:31.213Z,79.12
2022-10-24T01:50:52.266Z,79.04
2022-10-24T01:51:13.450Z,79.07
2022-10-24T01:51:34.495Z,79.04
2022-10-24T01:51:55.546Z,79.09
2022-10-24T01:52:16.602Z,79.08
2022-10-24T01:52:37.676Z,79.11
2022-10-24T01:52:58.696Z,79.08
2022-10-24T01:53:21.181Z,79.12
2022-10-24T01:53:44.967Z,79.20
2022-10-24T01:54:06.025Z,79.15
2022-10-24T01:54:27.060Z,79.21
2022-10-24T01:54:48.110Z,79.14
2022-10-24T01:55:09.162Z,79.18
2022-10-24T01:55:30.265Z,79.17
2022-10-24T01:55:51.309Z,79.22
2022-10-24T01:56:12.379Z,79.17
2022-10-24T01:56:33.571Z,79.16
2022-10-24T01:56:54.621Z,79.14
2022-10-24T01:57:15.676Z,79.14
2022-10-24T01:57:36.723Z,79.14
2022-10-24T01:57:57.774Z,79.14
2022-10-24T01:58:18.851Z,79.18
2022-10-24T01:58:39.885Z,79.23
2022-10-24T01:59:00.922Z,79.16
2022-10-24T01:59:21.982Z,79.15
2022-10-24T01:59:43.031Z,79.04
2022-10-24T02:00:04.063Z,79.00
2022-10-24T02:00:25.240Z,79.07
2022-10-24T02:00:46.487Z,79.00
2022-10-24T02:01:07.570Z,78.99
2022-10-24T02:01:28.668Z,78.95
2022-10-24T02:01:49.749Z,78.96
2022-10-24T02:02:10.807Z,78.91
2022-10-24T02:02:31.844Z,78.90
2022-10-24T02:02:52.894Z,78.97
2022-10-24T02:03:13.943Z,79.02
2022-10-24T02:03:34.981Z,79.04
2022-10-24T02:03:56.036Z,79.05
2022-10-24T02:04:17.079Z,79.03
2022-10-24T02:04:38.133Z,79.06
2022-10-24T02:04:59.182Z,79.07
2022-10-24T02:05:20.235Z,79.06
2022-10-24T02:05:41.283Z,79.05
2022-10-24T02:06:02.329Z,79.11
2022-10-24T02:06:23.381Z,79.09
2022-10-24T02:06:44.428Z,79.14
2022-10-24T02:07:05.596Z,79.15
2022-10-24T02:07:26.643Z,79.17
2022-10-24T02:07:47.697Z,79.19
2022-10-24T02:08:08.734Z,79.19
2022-10-24T02:08:29.796Z,79.19
2022-10-24T02:08:50.896Z,79.21
2022-10-24T02:09:11.977Z,79.16
2022-10-24T02:09:33.035Z,79.15
2022-10-24T02:09:54.072Z,79.11
2022-10-24T02:10:15.123Z,79.11
2022-10-24T02:10:36.167Z,79.12
2022-10-24T02:10:57.227Z,79.21
2022-10-24T02:11:18.264Z,79.21
2022-10-24T02:11:39.320Z,79.31
2022-10-24T02:12:00.377Z,79.25
2022-10-24T02:12:21.529Z,79.31
2022-10-24T02:12:43.000Z,79.30
2022-10-24T02:13:04.368Z,79.33
2022-10-24T02:13:25.427Z,79.33
2022-10-24T02:13:46.476Z,79.31
2022-10-24T02:14:07.516Z,79.33
2022-10-24T02:14:28.576Z,79.39
2022-10-24T02:14:49.614Z,79.43
2022-10-24T02:15:10.661Z,79.40
2022-10-24T02:15:31.712Z,79.49
2022-10-24T02:15:52.792Z,79.47
2022-10-24T02:16:13.828Z,79.47
2022-10-24T02:16:34.893Z,79.46
2022-10-24T02:16:55.942Z,79.46
2022-10-24T02:17:17.016Z,79.41
2022-10-24T02:17:38.148Z,79.43
2022-10-24T02:17:59.207Z,79.44
2022-10-24T02:18:20.278Z,79.39
2022-10-24T02:18:41.318Z,79.37
2022-10-24T02:19:02.375Z,79.46
2022-10-24T02:19:23.428Z,79.48
2022-10-24T02:19:44.483Z,79.51
2022-10-24T02:20:05.530Z,79.50
2022-10-24T02:20:26.589Z,79.51
2022-10-24T02:20:47.643Z,79.48
2022-10-24T02:21:08.694Z,79.44
2022-10-24T02:21:29.735Z,79.35
2022-10-24T02:21:50.794Z,79.31
2022-10-24T02:22:11.861Z,79.25
2022-10-24T02:22:32.903Z,79.22
2022-10-24T02:22:53.976Z,79.19
2022-10-24T02:23:15.022Z,79.22
2022-10-24T02:23:36.079Z,79.23
2022-10-24T02:23:57.127Z,79.25
2022-10-24T02:24:18.185Z,79.25
2022-10-24T02:24:39.244Z,79.20
2022-10-24T02:25:00.293Z,79.18
2022-10-24T02:25:21.342Z,79.25
2022-10-24T02:25:42.417Z,79.25
2022-10-24T02:26:03.480Z,79.31
2022-10-24T02:26:24.524Z,79.28
2022-10-24T02:26:45.565Z,79.27
2022-10-24T02:27:06.617Z,79.23
2022-10-24T02:27:27.675Z,79.24
2022-10-24T02:27:48.743Z,79.23
2022-10-24T02:28:09.923Z,79.21
2022-10-24T02:28:30.982Z,79.18
2022-10-24T02:28:52.015Z,79.20
2022-10-24T02:29:13.071Z,79.14
2022-10-24T02:29:34.134Z,79.14
2022-10-24T02:29:55.202Z,79.12
2022-10-24T02:30:16.261Z,79.19
2022-10-24T02:30:37.304Z,79.20
2022-10-24T02:30:58.376Z,79.22
2022-10-24T02:31:19.412Z,79.24
2022-10-24T02:31:40.472Z,79.25
2022-10-24T02:32:01.535Z,79.24
2022-10-24T02:32:22.582Z,79.16
2022-10-24T02:32:43.643Z,79.17
2022-10-24T02:33:04.697Z,79.18
2022-10-24T02:33:25.764Z,79.21
2022-10-24T02:33:46.807Z,79.23
2022-10-24T02:34:07.932Z,79.19
2022-10-24T02:34:28.987Z,79.20
2022-10-24T02:34:50.035Z,79.24
2022-10-24T02:35:11.103Z,79.24
2022-10-24T02:35:32.143Z,79.23
2022-10-24T02:35:53.191Z,79.20
2022-10-24T02:36:14.248Z,79.21
2022-10-24T02:36:35.421Z,79.17
2022-10-24T02:36:56.474Z,79.21
2022-10-24T02:37:17.517Z,79.23
2022-10-24T02:37:38.565Z,79.24
2022-10-24T02:37:59.621Z,79.20
2022-10-24T02:38:20.670Z,79.26
2022-10-24T02:38:41.717Z,79.25
2022-10-24T02:39:02.780Z,79.29
2022-10-24T02:39:23.825Z,79.23
2022-10-24T02:39:44.884Z,79.22
2022-10-24T02:40:05.925Z,79.20
2022-10-24T02:40:26.982Z,79.27
2022-10-24T02:40:48.042Z,79.25
2022-10-24T02:41:09.090Z,79.30
2022-10-24T02:41:30.130Z,79.27
2022-10-24T02:41:51.200Z,79.28
2022-10-24T02:42:12.241Z,79.27
2022-10-24T02:42:33.292Z,79.24
2022-10-24T02:42:54.336Z,79.25
2022-10-24T02:43:15.389Z,79.23
2022-10-24T02:43:36.458Z,79.18
2022-10-24T02:43:57.503Z,79.23
2022-10-24T02:44:18.565Z,79.28
2022-10-24T02:44:39.612Z,79.26
2022-10-24T02:45:00.651Z,79.26
2022-10-24T02:45:21.712Z,79.27
2022-10-24T02:45:42.773Z,79.24
2022-10-24T02:46:03.899Z,79.28
2022-10-24T02:46:24.909Z,79.26
2022-10-24T02:46:45.961Z,79.27
2022-10-24T02:47:07.045Z,79.36
2022-10-24T02:47:28.096Z,79.36
2022-10-24T02:47:49.161Z,79.36
2022-10-24T02:48:10.194Z,79.35
2022-10-24T02:48:31.255Z,79.34
2022-10-24T02:48:52.307Z,79.28
2022-10-24T02:49:13.364Z,79.27
2022-10-24T02:49:34.433Z,79.27
2022-10-24T02:49:55.486Z,79.20
2022-10-24T02:50:16.531Z,79.27
2022-10-24T02:50:37.624Z,79.26
2022-10-24T02:50:58.661Z,79.33
2022-10-24T02:51:19.701Z,79.28
2022-10-24T02:51:40.753Z,79.26
2022-10-24T02:52:01.809Z,79.26
2022-10-24T02:52:22.961Z,79.20
2022-10-24T02:52:44.299Z,79.19
2022-10-24T02:53:05.521Z,79.10
2022-10-24T02:53:26.576Z,79.13
2022-10-24T02:53:47.641Z,79.18
2022-10-24T02:54:08.676Z,79.19
2022-10-24T02:54:29.742Z,79.19
2022-10-24T02:54:50.778Z,79.22
2022-10-24T02:55:11.838Z,79.25
2022-10-24T02:55:32.870Z,79.31
2022-10-24T02:55:53.928Z,79.31
2022-10-24T02:56:14.983Z,79.31
2022-10-24T02:56:36.063Z,79.36
2022-10-24T02:56:57.093Z,79.32
2022-10-24T02:57:18.151Z,79.38
2022-10-24T02:57:39.317Z,79.34
2022-10-24T02:58:00.372Z,79.31
2022-10-24T02:58:21.421Z,79.26
2022-10-24T02:58:42.455Z,79.29
2022-10-24T02:59:03.575Z,79.35
2022-10-24T02:59:24.609Z,79.42
2022-10-24T02:59:45.657Z,79.39
2022-10-24T03:00:06.703Z,79.41
2022-10-24T03:00:27.864Z,79.37
2022-10-24T03:00:48.916Z,79.39
2022-10-24T03:01:10.045Z,79.42
2022-10-24T03:01:31.241Z,79.41
2022-10-24T03:01:52.282Z,79.46
2022-10-24T03:02:13.363Z,79.44
2022-10-24T03:02:34.414Z,79.44
2022-10-24T03:02:55.485Z,79.46
2022-10-24T03:03:16.521Z,79.40
2022-10-24T03:03:37.578Z,79.39
2022-10-24T03:03:58.649Z,79.24
2022-10-24T03:04:19.709Z,79.23
2022-10-24T03:04:40.766Z,79.21
2022-10-24T03:05:01.808Z,79.25
2022-10-24T03:05:22.865Z,79.34
2022-10-24T03:05:43.929Z,79.34
2022-10-24T03:06:04.976Z,79.38
2022-10-24T03:06:26.033Z,79.29
2022-10-24T03:06:47.141Z,79.29
2022-10-24T03:07:08.147Z,79.31
2022-10-24T03:07:50.248Z,79.34
2022-10-24T03:08:11.262Z,79.33
2022-10-24T03:08:32.311Z,79.32
2022-10-24T03:08:53.592Z,79.38
2022-10-24T03:09:14.659Z,79.38
2022-10-24T03:09:35.712Z,79.33
2022-10-24T03:09:56.737Z,79.40
2022-10-24T03:10:17.797Z,79.42
2022-10-24T03:10:38.858Z,79.42
2022-10-24T03:10:59.903Z,79.49
2022-10-24T03:11:20.954Z,79.53
2022-10-24T03:11:42.002Z,79.47
2022-10-24T03:12:03.051Z,79.54
2022-10-24T03:12:24.101Z,79.54
2022-10-24T03:12:45.391Z,79.56
2022-10-24T03:13:06.672Z,79.59
2022-10-24T03:13:27.731Z,79.61
2022-10-24T03:13:48.780Z,79.68
2022-10-24T03:14:09.845Z,79.74
2022-10-24T03:14:30.901Z,79.73
2022-10-24T03:14:51.959Z,79.87
2022-10-24T03:15:13.043Z,79.82
2022-10-24T03:15:34.122Z,79.79
2022-10-24T03:15:55.205Z,79.80
2022-10-24T03:16:16.256Z,79.76
2022-10-24T03:16:37.280Z,79.82
2022-10-24T03:16:58.330Z,79.70
2022-10-24T03:17:19.396Z,79.74
2022-10-24T03:17:40.447Z,79.78
2022-10-24T03:18:01.500Z,79.78
2022-10-24T03:18:22.555Z,79.80
2022-10-24T03:18:43.600Z,79.84
2022-10-24T03:19:04.665Z,79.80
2022-10-24T03:19:25.706Z,79.84
2022-10-24T03:19:46.758Z,79.87
2022-10-24T03:20:07.819Z,79.93
2022-10-24T03:20:28.859Z,79.88
2022-10-24T03:20:49.902Z,79.92
2022-10-24T03:21:10.968Z,79.92
2022-10-24T03:21:32.016Z,79.92
2022-10-24T03:21:53.066Z,79.91
2022-10-24T03:22:14.153Z,79.93
2022-10-24T03:22:35.186Z,79.96
2022-10-24T03:22:56.247Z,79.96
2022-10-24T03:23:17.280Z,79.95
2022-10-24T03:23:38.333Z,79.99
2022-10-24T03:23:59.447Z,79.98
2022-10-24T03:24:31.050Z,79.99
2022-10-24T03:24:54.999Z,80.05
2022-10-24T03:25:14.448Z,80.04
2022-10-24T03:25:35.486Z,80.06
2022-10-24T03:25:56.552Z,80.02
2022-10-24T03:26:17.627Z,80.02
2022-10-24T03:26:38.707Z,80.02
2022-10-24T03:26:59.755Z,79.99
2022-10-24T03:27:20.813Z,79.97
2022-10-24T03:27:41.995Z,79.96
2022-10-24T03:28:03.065Z,80.01
2022-10-24T03:28:24.137Z,80.04
2022-10-24T03:28:45.190Z,80.07
2022-10-24T03:29:06.229Z,80.05
2022-10-24T03:29:27.281Z,80.06
2022-10-24T03:29:48.364Z,80.12
2022-10-24T03:30:09.402Z,80.19
2022-10-24T03:30:30.459Z,80.14
2022-10-24T03:30:51.520Z,80.18
2022-10-24T03:31:12.573Z,80.22
2022-10-24T03:31:33.648Z,80.20
2022-10-24T03:31:54.684Z,80.16
2022-10-24T03:32:15.856Z,80.22
2022-10-24T03:32:36.887Z,80.20
2022-10-24T03:32:57.954Z,80.19
2022-10-24T03:33:19.014Z,80.25
2022-10-24T03:33:40.059Z,80.22
2022-10-24T03:34:01.114Z,80.23
2022-10-24T03:34:22.155Z,80.26
2022-10-24T03:34:43.215Z,80.27
2022-10-24T03:35:04.279Z,80.26
2022-10-24T03:35:25.310Z,80.25
2022-10-24T03:35:46.359Z,80.27
2022-10-24T03:36:07.411Z,80.26
2022-10-24T03:36:28.463Z,80.29
2022-10-24T03:36:49.534Z,80.24
2022-10-24T03:37:10.581Z,80.25
2022-10-24T03:37:31.671Z,80.27
2022-10-24T03:37:52.729Z,80.24
2022-10-24T03:38:13.774Z,80.20
2022-10-24T03:38:34.821Z,80.16
2022-10-24T03:38:55.873Z,80.12
2022-10-24T03:39:16.929Z,80.14
2022-10-24T03:39:37.994Z,80.18
2022-10-24T03:39:59.039Z,80.17
2022-10-24T03:40:20.096Z,80.21
2022-10-24T03:40:41.193Z,80.17
2022-10-24T03:41:02.262Z,80.24
2022-10-24T03:41:23.310Z,80.18
2022-10-24T03:41:44.360Z,80.16
2022-10-24T03:42:05.414Z,80.17
2022-10-24T03:42:26.456Z,80.17
2022-10-24T03:42:48.019Z,80.15
2022-10-24T03:43:09.264Z,80.18
2022-10-24T03:43:30.327Z,80.24
2022-10-24T03:43:51.382Z,80.25
2022-10-24T03:44:12.441Z,80.26
2022-10-24T03:44:33.488Z,80.28
2022-10-24T03:44:54.534Z,80.23
2022-10-24T03:45:15.592Z,80.30
2022-10-24T03:45:36.653Z,80.35
2022-10-24T03:45:57.684Z,80.31
2022-10-24T03:46:18.728Z,80.30
2022-10-24T03:46:39.808Z,80.33
2022-10-24T03:47:00.837Z,80.34
2022-10-24T03:47:21.916Z,80.35
2022-10-24T03:47:42.973Z,80.39
2022-10-24T03:48:04.165Z,80.35
2022-10-24T03:48:25.201Z,80.38
2022-10-24T03:48:46.247Z,80.40
2022-10-24T03:49:07.300Z,80.37
2022-10-24T03:49:28.382Z,80.32
2022-10-24T03:49:49.438Z,80.31
2022-10-24T03:50:10.496Z,80.31
2022-10-24T03:50:31.544Z,80.29
2022-10-24T03:50:52.589Z,80.25
2022-10-24T03:51:13.650Z,80.15
2022-10-24T03:51:34.697Z,80.15
2022-10-24T03:51:55.754Z,80.16
2022-10-24T03:52:16.808Z,80.12
2022-10-24T03:52:37.864Z,80.22
2022-10-24T03:52:58.917Z,80.11
2022-10-24T03:53:20.076Z,80.09
2022-10-24T03:53:41.129Z,80.07
2022-10-24T03:54:02.196Z,80.10
2022-10-24T03:54:23.242Z,80.09
2022-10-24T03:54:44.285Z,80.11
2022-10-24T03:55:05.339Z,80.12
2022-10-24T03:55:26.397Z,80.11
2022-10-24T03:55:47.439Z,80.16
2022-10-24T03:56:08.493Z,80.20
2022-10-24T03:56:29.548Z,80.21
2022-10-24T03:56:50.589Z,80.20
2022-10-24T03:57:11.714Z,80.22
2022-10-24T03:57:32.912Z,80.23
2022-10-24T03:57:53.977Z,80.21
2022-10-24T03:58:15.014Z,80.20
2022-10-24T03:58:36.193Z,80.24
2022-10-24T03:58:57.246Z,80.27
2022-10-24T03:59:18.291Z,80.27
2022-10-24T03:59:39.341Z,80.25
2022-10-24T04:00:00.389Z,80.35
2022-10-24T04:00:21.466Z,80.40
2022-10-24T04:00:42.581Z,80.38
2022-10-24T04:01:03.766Z,80.40
2022-10-24T04:01:24.963Z,80.42
2022-10-24T04:01:46.126Z,80.38
2022-10-24T04:02:07.167Z,80.44
2022-10-24T04:02:28.230Z,80.47
2022-10-24T04:02:49.296Z,80.47
2022-10-24T04:03:10.351Z,80.52
2022-10-24T04:03:31.410Z,80.54
2022-10-24T04:03:52.588Z,80.54
2022-10-24T04:04:13.641Z,80.61
2022-10-24T04:04:34.698Z,80.60
2022-10-24T04:04:55.741Z,80.63
2022-10-24T04:05:16.822Z,80.64
2022-10-24T04:05:58.928Z,80.56
2022-10-24T04:06:19.971Z,80.62
2022-10-24T04:06:41.017Z,80.58
2022-10-24T04:07:02.085Z,80.67
2022-10-24T04:07:23.119Z,80.71
2022-10-24T04:07:44.450Z,80.65
2022-10-24T04:08:05.602Z,80.62
2022-10-24T04:08:26.654Z,80.60
2022-10-24T04:08:47.718Z,80.55
2022-10-24T04:09:08.879Z,80.54
2022-10-24T04:09:29.924Z,80.53
2022-10-24T04:09:50.977Z,80.52
2022-10-24T04:10:12.023Z,80.51
2022-10-24T04:10:33.075Z,80.51
2022-10-24T04:10:54.128Z,80.49
2022-10-24T04:11:15.174Z,80.44
2022-10-24T04:11:36.232Z,80.47
2022-10-24T04:11:57.296Z,80.46
2022-10-24T04:12:18.364Z,80.44
2022-10-24T04:12:39.520Z,80.53
2022-10-24T04:13:00.566Z,80.53
2022-10-24T04:13:21.637Z,80.52
2022-10-24T04:13:42.691Z,80.53
2022-10-24T04:14:03.769Z,80.53
2022-10-24T04:14:24.811Z,80.56
2022-10-24T04:14:45.863Z,80.54
2022-10-24T04:15:06.923Z,80.56
2022-10-24T04:15:27.996Z,80.57
2022-10-24T04:15:49.038Z,80.43
2022-10-24T04:16:10.101Z,80.56
2022-10-24T04:16:31.168Z,80.48
2022-10-24T04:16:52.214Z,80.47
2022-10-24T04:17:13.249Z,80.49
2022-10-24T04:17:34.431Z,80.46
2022-10-24T04:17:55.473Z,80.48
2022-10-24T04:18:16.523Z,80.50
2022-10-24T04:18:37.578Z,80.54
2022-10-24T04:18:58.631Z,80.55
2022-10-24T04:19:19.682Z,80.50
2022-10-24T04:19:40.749Z,80.53
2022-10-24T04:20:01.812Z,80.52
2022-10-24T04:20:22.842Z,80.56
2022-10-24T04:20:44.008Z,80.55
2022-10-24T04:21:05.078Z,80.51
2022-10-24T04:21:26.143Z,80.57
2022-10-24T04:21:47.187Z,80.60
2022-10-24T04:22:08.301Z,80.54
2022-10-24T04:22:29.344Z,80.54
2022-10-24T04:22:50.396Z,80.54
2022-10-24T04:23:11.440Z,80.56
2022-10-24T04:23:32.490Z,80.53
2022-10-24T04:23:53.547Z,80.58
2022-10-24T04:24:14.605Z,80.60
2022-10-24T04:24:35.655Z,80.60
2022-10-24T04:24:56.699Z,80.60
2022-10-24T04:25:17.749Z,80.63
2022-10-24T04:25:38.827Z,80.69
2022-10-24T04:25:59.871Z,80.72
2022-10-24T04:26:21.055Z,80.71
2022-10-24T04:26:42.114Z,80.73
2022-10-24T04:27:03.167Z,80.79
2022-10-24T04:27:24.217Z,80.86
2022-10-24T04:27:45.262Z,80.92
2022-10-24T04:28:06.328Z,80.92
2022-10-24T04:28:27.386Z,80.92
2022-10-24T04:28:48.450Z,80.94
2022-10-24T04:29:09.499Z,80.95
2022-10-24T04:29:30.554Z,80.88
2022-10-24T04:29:51.607Z,80.90
2022-10-24T04:30:16.603Z,80.90
2022-10-24T04:30:38.000Z,80.94
2022-10-24T04:30:59.009Z,80.88
2022-10-24T04:31:23.367Z,80.92
2022-10-24T04:31:44.827Z,80.97
2022-10-24T04:32:05.893Z,80.93
2022-10-24T04:32:26.914Z,80.97
2022-10-24T04:32:48.294Z,80.92
2022-10-24T04:33:09.512Z,80.91